Time;durP1;ratioP1;P1;durP2;ratioP2;P2;SDS_P1;SDS_P2;PMS_P1;PMS_P2;Temp;Humidity;BMP_temperature;BMP_pressure;BME280_temperature;BME280_humidity;BME280_pressure;Samples;Min_cycle;Max_cycle;Signal;HPM_P1;HPM_P2
2022/04/20 00:01:24;;;;;;;7.13;3.63;;;10.30;85.20;;;;;;5015079;28;20049;-79
2022/04/20 00:03:50;;;;;;;8.27;4.00;;;10.30;85.80;;;;;;5032265;28;20140;-80
2022/04/20 00:06:16;;;;;;;8.23;3.85;;;10.30;85.00;;;;;;5048308;28;20057;-80
2022/04/20 00:08:42;;;;;;;9.25;3.90;;;10.20;85.50;;;;;;5031441;28;20433;-79
2022/04/20 00:11:08;;;;;;;8.45;4.18;;;10.20;86.20;;;;;;5015720;28;20084;-79
2022/04/20 00:13:37;;;;;;;9.15;4.00;;;10.20;86.80;;;;;;5031499;28;20095;-79
2022/04/20 00:16:03;;;;;;;8.73;3.80;;;10.10;87.50;;;;;;5032564;28;20076;-80
2022/04/20 00:18:29;;;;;;;7.95;4.03;;;10.10;87.20;;;;;;5015757;28;20049;-80
2022/04/20 00:20:54;;;;;;;9.90;4.53;;;10.10;87.30;;;;;;5016524;28;20049;-80
2022/04/20 00:23:20;;;;;;;7.80;3.72;;;10.00;87.70;;;;;;5014958;28;20099;-79
2022/04/20 00:25:46;;;;;;;10.63;3.70;;;10.00;88.50;;;;;;5012962;28;20045;-80
2022/04/20 00:28:11;;;;;;;10.52;4.22;;;10.00;88.10;;;;;;5022457;28;20730;-80
2022/04/20 00:30:37;;;;;;;11.30;4.38;;;10.00;88.90;;;;;;5032169;28;20640;-80
2022/04/20 00:33:03;;;;;;;9.40;4.32;;;10.00;89.20;;;;;;5032484;28;20045;-80
2022/04/20 00:35:29;;;;;;;8.70;3.80;;;10.00;90.00;;;;;;5001242;28;20052;-80
2022/04/20 00:37:55;;;;;;;7.43;4.13;;;10.00;90.00;;;;;;5032237;28;20045;-80
2022/04/20 00:40:20;;;;;;;8.25;4.38;;;10.10;90.40;;;;;;5031748;28;20051;-79
2022/04/20 00:42:47;;;;;;;8.30;4.05;;;9.90;90.50;;;;;;5012836;28;20057;-80
2022/04/20 00:45:14;;;;;;;9.05;4.10;;;9.90;91.00;;;;;;5011523;28;20056;-79
2022/04/20 00:47:42;;;;;;;11.75;4.22;;;9.80;91.60;;;;;;5011697;28;20803;-79
2022/04/20 00:50:10;;;;;;;9.43;4.53;;;9.80;91.90;;;;;;5028785;28;20542;-79
2022/04/20 00:52:36;;;;;;;10.63;4.50;;;9.70;91.90;;;;;;5015248;28;20048;-79
2022/04/20 00:55:02;;;;;;;9.98;4.32;;;9.70;92.50;;;;;;5032249;28;20044;-80
2022/04/20 00:57:28;;;;;;;7.82;4.15;;;9.60;92.80;;;;;;5031969;28;20045;-80
2022/04/20 00:59:56;;;;;;;8.38;3.90;;;9.60;93.20;;;;;;5015349;28;20049;-79
2022/04/20 01:02:23;;;;;;;8.13;4.32;;;9.50;93.60;;;;;;5031405;28;20130;-80
2022/04/20 01:04:49;;;;;;;;;;;9.40;94.00;;;;;;5032766;28;20056;-80
2022/04/20 01:07:16;;;;;;;7.93;4.00;;;9.40;96.50;;;;;;5031895;28;19924;-80
2022/04/20 01:09:43;;;;;;;8.40;4.18;;;9.80;94.60;;;;;;5014685;28;20048;-79
2022/04/20 01:12:10;;;;;;;8.55;4.53;;;9.40;95.00;;;;;;5032102;28;20483;-79
2022/04/20 01:14:36;;;;;;;9.88;4.63;;;9.40;95.70;;;;;;5032675;28;20095;-79
2022/04/20 01:17:03;;;;;;;9.68;4.47;;;9.30;96.20;;;;;;5015582;28;20080;-80
2022/04/20 01:19:33;;;;;;;9.40;4.15;;;9.30;96.50;;;;;;5032008;28;20045;-80
2022/04/20 01:21:59;;;;;;;9.20;4.70;;;9.30;96.50;;;;;;5045618;28;20072;-80
2022/04/20 01:24:25;;;;;;;9.80;4.43;;;9.60;96.80;;;;;;5014676;28;20049;-79
2022/04/20 01:26:50;;;;;;;9.15;4.55;;;9.30;97.00;;;;;;5048847;28;20056;-80
2022/04/20 01:29:19;;;;;;;10.57;4.25;;;9.30;97.50;;;;;;5048442;28;20057;-79
2022/04/20 01:31:44;;;;;;;12.32;4.90;;;9.30;97.70;;;;;;5031711;28;20055;-80
2022/04/20 01:34:10;;;;;;;9.48;4.80;;;9.30;97.80;;;;;;5032506;28;20053;-79
2022/04/20 01:36:36;;;;;;;11.18;4.72;;;9.20;97.70;;;;;;5051815;28;20110;-79
2022/04/20 01:39:02;;;;;;;9.00;4.88;;;9.20;98.20;;;;;;5017574;28;20053;-79
2022/04/20 01:41:28;;;;;;;9.20;5.13;;;9.10;98.50;;;;;;5018545;28;20052;-80
2022/04/20 01:43:54;;;;;;;10.65;4.75;;;9.10;99.10;;;;;;5034503;28;20088;-80
2022/04/20 01:46:19;;;;;;;11.75;4.95;;;9.10;99.60;;;;;;5034938;28;20498;-80
2022/04/20 01:48:45;;;;;;;9.13;4.65;;;9.10;99.90;;;;;;5018735;28;20144;-80
2022/04/20 01:53:55;;;;;;;11.75;4.75;;;9.00;99.90;;;;;;5020208;28;20521;-79
2022/04/20 01:56:20;;;;;;;9.65;4.20;;;9.00;99.90;;;;;;5018336;28;20041;-79
2022/04/20 01:58:46;;;;;;;9.65;4.72;;;8.90;99.90;;;;;;5000823;28;20075;-79
2022/04/20 02:03:56;;;;;;;8.30;4.38;;;8.90;99.90;;;;;;5018557;28;20065;-79
2022/04/20 02:06:21;;;;;;;10.88;4.78;;;8.90;99.90;;;;;;5013634;28;20049;-80
2022/04/20 02:08:47;;;;;;;9.60;4.70;;;8.90;99.90;;;;;;5016048;28;20059;-80
2022/04/20 02:11:13;;;;;;;11.93;5.13;;;8.80;99.90;;;;;;5017990;28;20136;-80
2022/04/20 02:13:39;;;;;;;8.95;4.38;;;8.80;99.90;;;;;;5032959;28;20107;-80
2022/04/20 02:16:05;;;;;;;;;;;8.70;99.90;;;;;;5034529;28;20398;-80
2022/04/20 02:18:31;;;;;;;7.95;4.28;;;8.80;99.90;;;;;;5016774;28;19925;-80
2022/04/20 02:20:57;;;;;;;9.52;4.50;;;8.70;99.90;;;;;;5034001;28;20049;-80
2022/04/20 02:23:22;;;;;;;8.95;4.60;;;8.90;99.90;;;;;;5017192;28;20052;-80
2022/04/20 02:25:48;;;;;;;8.18;4.55;;;8.60;99.90;;;;;;5013445;28;20503;-80
2022/04/20 02:28:13;;;;;;;11.85;4.68;;;8.60;99.90;;;;;;5022354;28;20049;-79
2022/04/20 02:30:40;;;;;;;8.43;4.15;;;8.60;99.90;;;;;;5039806;28;20072;-79
2022/04/20 02:33:05;;;;;;;;;;;8.50;99.90;;;;;;5048315;28;20046;-79
2022/04/20 02:35:31;;;;;;;8.68;4.28;;;8.50;99.90;;;;;;5017125;28;19928;-79
2022/04/20 02:37:59;;;;;;;10.18;4.97;;;8.50;99.90;;;;;;5033116;28;20033;-79
2022/04/20 02:40:24;;;;;;;10.50;4.25;;;8.40;99.90;;;;;;5033587;28;20122;-79
2022/04/20 02:42:50;;;;;;;9.30;4.45;;;8.40;99.90;;;;;;5017106;28;20052;-79
2022/04/20 02:45:16;;;;;;;8.68;4.82;;;8.60;99.90;;;;;;5016404;28;20063;-79
2022/04/20 02:47:43;;;;;;;11.60;4.38;;;8.30;99.90;;;;;;5016024;28;20191;-79
2022/04/20 02:50:09;;;;;;;11.07;4.50;;;8.30;99.90;;;;;;5016337;28;20049;-79
2022/04/20 02:52:35;;;;;;;10.40;4.65;;;8.20;99.90;;;;;;5026130;28;20045;-79
2022/04/20 02:55:00;;;;;;;11.15;4.95;;;8.20;99.90;;;;;;5033276;28;20053;-78
2022/04/20 02:57:26;;;;;;;8.23;4.55;;;8.20;99.90;;;;;;5016978;28;20098;-79
2022/04/20 02:59:52;;;;;;;11.55;4.93;;;8.20;99.90;;;;;;5032820;28;20045;-78
2022/04/20 03:02:18;;;;;;;10.85;4.93;;;8.10;99.90;;;;;;5033236;28;20146;-78
2022/04/20 03:04:43;;;;;;;9.13;4.47;;;8.10;99.90;;;;;;5013063;28;20056;-78
2022/04/20 03:07:09;;;;;;;10.32;5.15;;;8.20;99.90;;;;;;4997440;28;20828;-79
2022/04/20 03:09:35;;;;;;;10.48;4.78;;;8.20;99.90;;;;;;5013796;28;20107;-79
2022/04/20 03:12:01;;;;;;;11.10;4.75;;;8.10;99.90;;;;;;5032682;28;20127;-79
2022/04/20 03:14:27;;;;;;;10.25;4.60;;;8.10;99.90;;;;;;5032347;28;20051;-78
2022/04/20 03:16:52;;;;;;;10.25;4.75;;;8.10;99.90;;;;;;5015035;28;20041;-79
2022/04/20 03:19:18;;;;;;;12.07;4.57;;;8.10;99.90;;;;;;5033350;28;20055;-78
2022/04/20 03:21:43;;;;;;;10.98;4.60;;;8.10;99.90;;;;;;5032693;28;20131;-78
2022/04/20 03:24:09;;;;;;;8.85;4.65;;;8.00;99.90;;;;;;5015989;28;20049;-79
2022/04/20 03:26:35;;;;;;;13.93;4.72;;;8.00;99.90;;;;;;5016207;28;20049;-78
2022/04/20 03:29:00;;;;;;;9.73;4.57;;;8.20;99.90;;;;;;5016007;28;20053;-78
2022/04/20 03:31:26;;;;;;;8.38;4.40;;;8.00;99.90;;;;;;5032660;28;20059;-78
2022/04/20 03:33:52;;;;;;;9.77;4.90;;;8.00;99.90;;;;;;5032521;28;20041;-78
2022/04/20 03:36:19;;;;;;;9.43;5.10;;;7.90;99.90;;;;;;5032385;28;20391;-78
2022/04/20 03:38:44;;;;;;;9.18;4.88;;;7.90;99.90;;;;;;5014551;28;20788;-78
2022/04/20 03:41:10;;;;;;;9.90;4.80;;;8.00;99.90;;;;;;5032918;28;20139;-78
2022/04/20 03:43:36;;;;;;;9.38;5.25;;;7.90;99.90;;;;;;5031196;28;20131;-78
2022/04/20 03:46:01;;;;;;;8.07;4.25;;;7.90;99.90;;;;;;5015422;28;20553;-78
2022/04/20 03:48:27;;;;;;;10.73;4.82;;;7.90;99.90;;;;;;5032696;28;20048;-78
2022/04/20 03:50:53;;;;;;;9.02;4.45;;;7.80;99.90;;;;;;5015896;28;20102;-79
2022/04/20 03:53:19;;;;;;;13.68;5.30;;;7.70;99.90;;;;;;5031890;28;20566;-79
2022/04/20 03:55:44;;;;;;;10.98;4.63;;;7.70;99.90;;;;;;5011547;28;20049;-78
2022/04/20 03:58:10;;;;;;;11.52;4.93;;;7.70;99.90;;;;;;5038410;28;20049;-78
2022/04/20 04:00:36;;;;;;;8.82;4.50;;;7.60;99.90;;;;;;5031745;28;20091;-78
2022/04/20 04:03:02;;;;;;;11.07;4.57;;;7.50;99.90;;;;;;5015654;28;20049;-78
2022/04/20 04:05:27;;;;;;;10.25;4.45;;;7.50;99.90;;;;;;4998921;28;20059;-78
2022/04/20 04:07:53;;;;;;;9.45;5.00;;;7.40;99.90;;;;;;5031370;28;20052;-78
2022/04/20 04:10:19;;;;;;;10.38;4.93;;;7.30;99.90;;;;;;5032231;28;20083;-79
2022/04/20 04:12:44;;;;;;;10.00;5.10;;;7.30;99.90;;;;;;5015308;28;20383;-78
2022/04/20 04:15:11;;;;;;;9.30;4.82;;;7.20;99.90;;;;;;5014754;28;20102;-78
2022/04/20 04:17:36;;;;;;;10.40;5.20;;;7.20;99.90;;;;;;5031186;28;20041;-79
2022/04/20 04:20:04;;;;;;;8.93;4.60;;;7.20;99.90;;;;;;5032290;28;20095;-79
2022/04/20 04:22:30;;;;;;;9.32;4.95;;;7.20;99.90;;;;;;5031833;28;20111;-78
2022/04/20 04:24:58;;;;;;;9.65;5.13;;;7.10;99.90;;;;;;5031068;28;20124;-78
2022/04/20 04:27:24;;;;;;;13.68;5.00;;;7.20;99.90;;;;;;5031460;28;20090;-78
2022/04/20 04:29:50;;;;;;;11.05;5.05;;;7.10;99.90;;;;;;5030739;28;20144;-78
2022/04/20 04:32:16;;;;;;;10.85;4.38;;;7.00;99.90;;;;;;5031503;28;20052;-78
2022/04/20 04:34:41;;;;;;;10.73;4.65;;;7.00;99.90;;;;;;5015269;28;20041;-78
2022/04/20 04:37:09;;;;;;;9.63;4.85;;;6.90;99.90;;;;;;4996174;28;20053;-78
2022/04/20 04:39:35;;;;;;;11.45;5.25;;;6.80;99.90;;;;;;5011779;28;20145;-78
2022/04/20 04:42:02;;;;;;;10.23;5.05;;;6.80;99.90;;;;;;5011863;28;20132;-78
2022/04/20 04:44:28;;;;;;;9.52;4.88;;;6.70;99.90;;;;;;5014111;28;20053;-78
2022/04/20 04:49:39;;;;;;;11.32;4.85;;;6.60;99.90;;;;;;5034881;28;19967;-78
2022/04/20 04:52:06;;;;;;;;;;;7.00;99.90;;;;;;5035704;28;20045;-78
2022/04/20 04:54:33;;;;;;;;;;;6.60;99.90;;;;;;5035968;28;20019;-79
2022/04/20 04:56:59;;;;;;;8.65;4.65;;;6.60;99.90;;;;;;5052191;28;19967;-79
2022/04/20 04:59:25;;;;;;;11.43;5.28;;;6.90;99.90;;;;;;5018362;28;20076;-79
2022/04/20 05:01:50;;;;;;;11.68;5.07;;;6.50;99.90;;;;;;5033951;28;20049;-79
2022/04/20 05:04:16;;;;;;;10.27;5.22;;;6.50;99.90;;;;;;5015822;28;20049;-79
2022/04/20 05:06:43;;;;;;;9.90;5.05;;;6.50;99.90;;;;;;5018553;28;20075;-79
2022/04/20 05:09:09;;;;;;;9.25;4.72;;;6.60;99.90;;;;;;5034694;28;20049;-79
2022/04/20 05:11:34;;;;;;;10.48;5.43;;;6.40;99.90;;;;;;5035260;28;20071;-79
2022/04/20 05:14:00;;;;;;;11.57;5.45;;;6.50;99.90;;;;;;5017920;28;20064;-80
2022/04/20 05:16:26;;;;;;;9.23;4.95;;;6.70;99.90;;;;;;5034930;28;20486;-80
2022/04/20 05:18:52;;;;;;;12.18;5.60;;;6.50;99.90;;;;;;5035014;28;20080;-80
2022/04/20 05:21:18;;;;;;;11.90;5.13;;;6.50;99.90;;;;;;5018714;28;20107;-80
2022/04/20 05:23:44;;;;;;;8.10;4.53;;;6.50;99.90;;;;;;5014378;28;20049;-80
2022/04/20 05:26:09;;;;;;;10.85;5.40;;;6.60;99.90;;;;;;5018876;28;20071;-80
2022/04/20 05:28:35;;;;;;;12.38;4.55;;;6.60;99.90;;;;;;5033644;28;20041;-76
2022/04/20 05:31:01;;;;;;;9.82;5.05;;;6.70;99.90;;;;;;5034321;28;20049;-80
2022/04/20 05:33:27;;;;;;;11.30;5.80;;;6.70;99.90;;;;;;5018186;28;20140;-80
2022/04/20 05:35:52;;;;;;;10.30;5.05;;;6.70;99.90;;;;;;5018272;28;20045;-80
2022/04/20 05:43:49;;;;;;;10.68;5.45;;;7.20;99.90;;;;;;5033261;28;20045;-80
2022/04/20 05:46:15;;;;;;;12.55;5.25;;;6.90;99.90;;;;;;5034473;28;20053;-80
2022/04/20 05:48:40;;;;;;;9.23;4.80;;;7.00;99.90;;;;;;5034615;28;20060;-80
2022/04/20 05:51:07;;;;;;;8.82;5.03;;;7.00;99.90;;;;;;5018544;28;20383;-80
2022/04/20 05:53:33;;;;;;;9.43;4.85;;;7.60;99.90;;;;;;5017289;28;20060;-80
2022/04/20 05:55:59;;;;;;;10.70;5.50;;;7.10;99.90;;;;;;5034200;28;20045;-80
2022/04/20 05:58:25;;;;;;;15.50;5.85;;;7.20;99.90;;;;;;5033929;28;20083;-80
2022/04/20 06:00:50;;;;;;;10.02;5.10;;;7.20;99.90;;;;;;5033073;28;20052;-80
2022/04/20 06:03:16;;;;;;;9.65;5.35;;;7.30;99.90;;;;;;5017851;28;20133;-80
2022/04/20 06:05:42;;;;;;;11.40;5.15;;;7.40;99.90;;;;;;5050239;28;20131;-79
2022/04/20 06:08:08;;;;;;;11.95;5.53;;;7.40;99.90;;;;;;5017556;28;20049;-79
2022/04/20 06:10:34;;;;;;;10.48;5.40;;;7.40;99.90;;;;;;5034542;28;20049;-80
2022/04/20 06:13:00;;;;;;;10.35;5.15;;;7.50;99.90;;;;;;5033460;28;20088;-80
2022/04/20 06:15:26;;;;;;;12.85;5.75;;;7.50;99.90;;;;;;5033868;28;20087;-80
2022/04/20 06:17:51;;;;;;;10.27;5.07;;;8.10;99.90;;;;;;5033394;28;20143;-80
2022/04/20 06:20:17;;;;;;;9.45;5.20;;;7.70;99.90;;;;;;5034162;28;20053;-80
2022/04/20 06:22:43;;;;;;;10.05;5.00;;;8.00;99.90;;;;;;4996735;28;20447;-80
2022/04/20 06:25:09;;;;;;;11.02;4.53;;;7.90;99.90;;;;;;5030065;28;20052;-80
2022/04/20 06:27:35;;;;;;;14.85;4.70;;;8.00;99.90;;;;;;5030974;28;20053;-80
2022/04/20 06:30:01;;;;;;;11.05;4.72;;;8.00;99.90;;;;;;5028010;28;20048;-80
2022/04/20 06:32:27;;;;;;;13.48;4.00;;;8.10;99.90;;;;;;5046987;28;20335;-81
2022/04/20 06:34:54;;;;;;;7.90;3.67;;;8.10;99.90;;;;;;5047090;28;20140;-80
2022/04/20 06:37:22;;;;;;;10.40;4.15;;;8.20;99.90;;;;;;5028867;28;20049;-81
2022/04/20 06:39:49;;;;;;;8.52;4.25;;;8.40;99.90;;;;;;5022515;28;20124;-80
2022/04/20 06:42:15;;;;;;;9.90;4.63;;;8.40;99.90;;;;;;5013761;28;20061;-80
2022/04/20 06:44:41;;;;;;;7.35;4.22;;;8.30;99.90;;;;;;5032741;28;20037;-80
2022/04/20 06:47:07;;;;;;;8.20;4.65;;;8.40;99.90;;;;;;5016173;28;20514;-80
2022/04/20 06:49:33;;;;;;;7.43;3.88;;;8.40;99.90;;;;;;5007203;28;20609;-83
2022/04/20 07:00:11;;;;;;;11.43;4.85;;;8.60;99.90;;;;;;5029557;28;20072;-80
2022/04/20 07:02:37;;;;;;;9.23;4.45;;;8.60;99.90;;;;;;5032255;28;20112;-81
2022/04/20 07:05:05;;;;;;;10.25;4.10;;;8.70;99.90;;;;;;5015120;28;20115;-80
2022/04/20 07:07:30;;;;;;;7.15;3.90;;;8.80;99.90;;;;;;5029356;28;20518;-80
2022/04/20 07:09:56;;;;;;;10.88;3.90;;;8.80;99.90;;;;;;5013855;28;20076;-80
2022/04/20 07:12:22;;;;;;;8.75;3.28;;;8.80;99.90;;;;;;5014779;28;20044;-80
2022/04/20 07:14:48;;;;;;;8.55;3.75;;;8.90;99.90;;;;;;5046773;28;20059;-80
2022/04/20 07:17:13;;;;;;;7.28;3.90;;;8.90;99.90;;;;;;5015560;28;20056;-79
2022/04/20 07:19:39;;;;;;;9.35;3.85;;;8.90;99.90;;;;;;5032163;28;20114;-77
2022/04/20 07:22:05;;;;;;;7.43;3.50;;;9.00;99.90;;;;;;5024212;28;20580;-77
2022/04/20 07:24:31;;;;;;;7.38;3.15;;;9.00;99.90;;;;;;5017253;28;20045;-78
2022/04/20 07:26:57;;;;;;;8.00;4.40;;;9.00;99.90;;;;;;5014871;28;20051;-79
2022/04/20 07:29:22;;;;;;;6.60;3.97;;;9.10;99.90;;;;;;5032736;28;20078;-79
2022/04/20 07:31:48;;;;;;;10.18;3.67;;;9.20;99.90;;;;;;5000004;28;20048;-79
2022/04/20 07:34:14;;;;;;;9.57;4.20;;;9.20;99.90;;;;;;5017095;28;20053;-79
2022/04/20 07:36:39;;;;;;;9.68;4.22;;;9.60;99.90;;;;;;5017204;28;20561;-79
2022/04/20 07:39:05;;;;;;;7.20;3.70;;;9.40;99.90;;;;;;5016080;28;20679;-79
2022/04/20 07:41:30;;;;;;;9.77;3.97;;;9.30;99.90;;;;;;5029166;28;20053;-79
2022/04/20 07:43:56;;;;;;;9.07;3.63;;;9.40;99.90;;;;;;5022111;28;20053;-79
2022/04/20 07:46:22;;;;;;;10.68;3.45;;;9.40;99.90;;;;;;5013064;28;20054;-79
2022/04/20 07:48:48;;;;;;;;;;;9.50;99.90;;;;;;4997100;28;20063;-78
2022/04/20 07:51:14;;;;;;;6.97;3.40;;;9.50;99.00;;;;;;5013530;28;19920;-79
2022/04/20 07:53:40;;;;;;;7.75;3.10;;;9.60;99.90;;;;;;5024120;28;20052;-75
2022/04/20 07:56:06;;;;;;;6.70;3.58;;;9.60;99.40;;;;;;5023612;28;20029;-79
2022/04/20 07:58:32;;;;;;;7.22;3.38;;;9.70;97.90;;;;;;4999608;28;20049;-79
2022/04/20 08:00:57;;;;;;;6.13;3.22;;;9.70;97.50;;;;;;5013236;28;20140;-79
2022/04/20 08:03:24;;;;;;;6.30;3.45;;;9.80;95.90;;;;;;5031122;28;21084;-79
2022/04/20 08:05:51;;;;;;;7.60;3.20;;;9.90;95.80;;;;;;5011611;28;20494;-79
2022/04/20 08:08:18;;;;;;;5.18;2.60;;;9.90;95.40;;;;;;5028969;28;20049;-79
2022/04/20 08:10:44;;;;;;;9.45;3.13;;;10.00;93.70;;;;;;5028855;28;20071;-79
2022/04/20 08:15:57;;;;;;;6.70;3.10;;;10.10;93.40;;;;;;5029186;28;20049;-79
2022/04/20 08:18:24;;;;;;;7.53;3.13;;;10.20;92.80;;;;;;5030174;28;20135;-79
2022/04/20 08:20:50;;;;;;;7.40;3.33;;;10.30;93.00;;;;;;5045541;28;20175;-79
2022/04/20 08:23:16;;;;;;;6.53;3.33;;;10.30;92.90;;;;;;5025493;28;20076;-79
2022/04/20 08:25:43;;;;;;;8.60;3.30;;;10.30;92.90;;;;;;5012131;28;20587;-79
2022/04/20 08:28:10;;;;;;;7.45;3.83;;;10.40;93.10;;;;;;4995511;28;20045;-79
2022/04/20 08:30:37;;;;;;;8.70;3.38;;;10.50;93.20;;;;;;5012956;28;20072;-79
2022/04/20 08:33:06;;;;;;;8.27;3.40;;;10.50;93.70;;;;;;5012042;28;20064;-79
2022/04/20 08:35:33;;;;;;;5.55;3.00;;;10.50;93.80;;;;;;5013862;28;20437;-79
2022/04/20 08:37:59;;;;;;;5.70;2.88;;;10.60;93.70;;;;;;5011678;28;20589;-79
2022/04/20 08:40:27;;;;;;;4.80;2.80;;;10.70;92.50;;;;;;5013118;28;20128;-79
2022/04/20 08:42:54;;;;;;;7.45;3.20;;;10.80;91.10;;;;;;5046399;28;20048;-79
2022/04/20 08:45:21;;;;;;;8.60;3.60;;;10.80;90.30;;;;;;5029167;28;20119;-79
2022/04/20 08:47:49;;;;;;;7.43;3.45;;;10.90;90.30;;;;;;5029832;28;20063;-79
2022/04/20 08:50:15;;;;;;;7.47;2.80;;;10.90;90.30;;;;;;5013961;28;20049;-79
2022/04/20 08:52:42;;;;;;;;;;;11.00;90.30;;;;;;5024093;28;20128;-78
2022/04/20 08:55:10;;;;;;;6.25;2.80;;;11.10;85.70;;;;;;5028324;28;19925;-79
2022/04/20 08:57:37;;;;;;;12.88;2.75;;;11.20;84.80;;;;;;5004953;28;20084;-78
2022/04/20 09:00:05;;;;;;;4.63;2.58;;;11.20;83.00;;;;;;5013859;28;20131;-79
2022/04/20 09:02:31;;;;;;;4.93;2.45;;;11.40;81.20;;;;;;5031218;28;20443;-78
2022/04/20 09:04:57;;;;;;;6.30;2.78;;;11.40;81.10;;;;;;5021395;28;20200;-78
2022/04/20 09:07:24;;;;;;;6.03;2.90;;;11.50;79.30;;;;;;5011224;28;20080;-78
2022/04/20 09:09:50;;;;;;;4.03;2.33;;;11.50;77.30;;;;;;4995546;28;20184;-78
2022/04/20 09:12:18;;;;;;;7.38;2.72;;;11.60;76.90;;;;;;5023246;28;20454;-78
2022/04/20 09:14:48;;;;;;;5.40;2.63;;;11.70;76.50;;;;;;5013591;28;20044;-78
2022/04/20 09:17:18;;;;;;;5.65;2.75;;;11.70;76.80;;;;;;5030788;28;20049;-79
2022/04/20 09:19:51;;;;;;;3.92;2.22;;;11.80;76.80;;;;;;5031733;28;20045;-75
2022/04/20 09:22:25;;;;;;;5.40;2.50;;;11.80;77.50;;;;;;5032066;28;20096;-76
2022/04/20 09:25:08;;;;;;;5.30;2.13;;;11.90;76.90;;;;;;5031079;28;20045;-76
2022/04/20 09:27:36;;;;;;;5.38;2.30;;;12.10;76.30;;;;;;5025500;28;20083;-77
2022/04/20 09:30:04;;;;;;;5.47;2.40;;;12.20;74.20;;;;;;5028019;28;20080;-77
2022/04/20 09:32:31;;;;;;;3.88;2.10;;;12.20;72.80;;;;;;5014044;28;20132;-76
2022/04/20 09:35:03;;;;;;;3.80;2.00;;;12.30;72.30;;;;;;5031259;28;20049;-77
2022/04/20 09:37:29;;;;;;;5.82;2.50;;;12.40;69.40;;;;;;5034813;28;20091;-77
2022/04/20 09:39:55;;;;;;;3.70;2.10;;;12.50;69.40;;;;;;5034549;28;20621;-77
2022/04/20 09:42:21;;;;;;;3.67;2.13;;;12.60;69.30;;;;;;5035117;28;20067;-77
2022/04/20 09:45:06;;;;;;;4.53;2.25;;;12.70;68.90;;;;;;5034594;28;20045;-78
2022/04/20 09:50:24;;;;;;;5.30;2.50;;;12.90;68.10;;;;;;5035395;28;20052;-77
2022/04/20 09:52:55;;;;;;;3.13;1.90;;;12.90;66.50;;;;;;5033504;28;20061;-77
2022/04/20 09:55:38;;;;;;;3.97;1.98;;;13.00;66.30;;;;;;5051192;28;20135;-78
2022/04/20 09:58:20;;;;;;;5.47;2.05;;;13.10;66.90;;;;;;5034117;28;20478;-77
2022/04/20 10:00:53;;;;;;;5.25;2.00;;;13.20;65.70;;;;;;5034980;28;20048;-77
2022/04/20 10:03:24;;;;;;;3.50;2.30;;;13.30;65.60;;;;;;5034966;28;20053;-77
2022/04/20 10:05:50;;;;;;;4.28;2.03;;;13.40;65.70;;;;;;5018861;28;20069;-77
2022/04/20 10:08:17;;;;;;;8.52;2.30;;;13.40;66.00;;;;;;5017337;28;20041;-79
2022/04/20 10:10:44;;;;;;;4.50;2.13;;;13.50;64.60;;;;;;5035142;28;20048;-77
2022/04/20 10:13:10;;;;;;;5.13;2.40;;;13.60;64.10;;;;;;5033803;28;20048;-77
2022/04/20 10:18:25;;;;;;;5.03;2.38;;;13.70;62.80;;;;;;5035003;28;20053;-77
2022/04/20 10:20:56;;;;;;;4.65;2.47;;;13.70;63.90;;;;;;5035173;28;20049;-77
2022/04/20 10:23:23;;;;;;;4.60;2.25;;;13.80;64.40;;;;;;5031646;28;20045;-77
2022/04/20 10:25:51;;;;;;;7.30;2.22;;;13.90;65.10;;;;;;5032530;28;20052;-78
2022/04/20 10:28:19;;;;;;;4.20;2.42;;;13.90;64.20;;;;;;5030955;28;20168;-78
2022/04/20 10:30:58;;;;;;;4.93;2.63;;;14.00;63.60;;;;;;5032703;28;20056;-77
2022/04/20 10:33:24;;;;;;;8.43;2.67;;;14.10;61.50;;;;;;5017957;28;20106;-77
2022/04/20 10:35:58;;;;;;;4.78;2.60;;;14.20;62.90;;;;;;5033939;28;20080;-79
2022/04/20 10:38:24;;;;;;;6.00;2.47;;;14.30;62.80;;;;;;5033241;28;20041;-79
2022/04/20 10:41:07;;;;;;;12.88;2.72;;;14.40;63.10;;;;;;5034288;28;20101;-77
2022/04/20 10:43:39;;;;;;;6.82;2.40;;;14.40;62.60;;;;;;5032490;28;20441;-77
2022/04/20 10:46:11;;;;;;;5.93;2.20;;;14.50;62.40;;;;;;5032045;28;20064;-77
2022/04/20 10:49:07;;;;;;;3.67;2.22;;;14.50;61.80;;;;;;5033484;28;20052;-77
2022/04/20 10:51:42;;;;;;;6.32;2.30;;;14.60;61.60;;;;;;5033574;28;20055;-78
2022/04/20 10:54:17;;;;;;;8.82;2.40;;;14.70;61.40;;;;;;5031971;28;20052;-78
2022/04/20 10:56:50;;;;;;;4.90;2.22;;;14.80;60.80;;;;;;5017730;28;20056;-78
2022/04/20 10:59:16;;;;;;;3.40;2.10;;;14.80;61.70;;;;;;5016415;28;20057;-78
2022/04/20 11:02:09;;;;;;;3.80;2.20;;;14.90;62.50;;;;;;5017421;28;20364;-78
2022/04/20 11:04:42;;;;;;;3.67;2.17;;;15.10;61.20;;;;;;5011880;28;20068;-78
2022/04/20 11:07:07;;;;;;;4.95;2.28;;;15.20;60.60;;;;;;5023208;28;20059;-78
2022/04/20 11:09:43;;;;;;;5.68;2.35;;;15.30;60.20;;;;;;5032486;28;20041;-78
2022/04/20 11:21:03;;;;;;;3.10;1.98;;;15.70;60.00;;;;;;5027235;28;20049;-78
2022/04/20 11:23:47;;;;;;;5.07;2.15;;;15.80;59.70;;;;;;5045256;28;20044;-78
2022/04/20 11:26:19;;;;;;;4.60;2.08;;;16.00;59.40;;;;;;5030463;28;20114;-79
2022/04/20 11:28:45;;;;;;;3.60;1.95;;;16.10;59.20;;;;;;5032004;28;20052;-80
2022/04/20 11:31:12;;;;;;;7.13;2.20;;;16.20;58.90;;;;;;5031971;28;20513;-79
2022/04/20 11:33:39;;;;;;;5.35;2.40;;;16.30;58.10;;;;;;5031045;28;20049;-78
2022/04/20 11:36:05;;;;;;;5.15;2.10;;;16.40;57.70;;;;;;5029768;28;20051;-77
2022/04/20 11:38:40;;;;;;;4.43;2.30;;;16.50;58.50;;;;;;5014487;28;20491;-78
2022/04/20 11:41:06;;;;;;;4.28;1.98;;;16.60;58.20;;;;;;5015711;28;20138;-77
2022/04/20 11:43:31;;;;;;;5.95;2.10;;;16.80;58.10;;;;;;5032109;28;20132;-78
2022/04/20 11:45:58;;;;;;;7.05;2.47;;;16.90;56.80;;;;;;5033101;28;20049;-78
2022/04/20 11:48:24;;;;;;;5.28;2.30;;;17.00;56.80;;;;;;5032996;28;20064;-78
2022/04/20 11:51:00;;;;;;;7.43;2.38;;;17.10;56.40;;;;;;5000453;28;20391;-77
2022/04/20 11:53:38;;;;;;;5.43;2.20;;;17.30;55.60;;;;;;5014711;28;20037;-79
2022/04/20 11:56:07;;;;;;;6.28;2.05;;;17.50;55.30;;;;;;5032263;28;20064;-77
2022/04/20 11:58:33;;;;;;;6.22;2.25;;;17.70;54.50;;;;;;5014927;28;20537;-77
2022/04/20 12:01:01;;;;;;;4.13;2.30;;;17.80;54.60;;;;;;5030896;28;20049;-78
2022/04/20 12:03:41;;;;;;;4.20;2.20;;;18.00;54.30;;;;;;5031147;28;20473;-78
2022/04/20 12:06:09;;;;;;;3.03;1.90;;;18.10;54.30;;;;;;5031720;28;20064;-78
2022/04/20 12:08:38;;;;;;;5.50;2.20;;;18.30;54.40;;;;;;5032012;28;20049;-78
2022/04/20 12:11:06;;;;;;;5.72;2.47;;;18.50;53.40;;;;;;5031901;28;20045;-77
2022/04/20 12:13:32;;;;;;;4.15;1.98;;;18.70;54.00;;;;;;5048755;28;20053;-79
2022/04/20 12:16:11;;;;;;;7.45;2.40;;;19.00;55.00;;;;;;5032052;28;20077;-78
2022/04/20 12:18:43;;;;;;;5.15;2.40;;;19.30;52.60;;;;;;5029633;28;20404;-78
2022/04/20 12:21:40;;;;;;;5.35;2.30;;;19.50;53.30;;;;;;5015181;28;20534;-78
2022/04/20 12:24:09;;;;;;;7.80;2.90;;;19.80;54.00;;;;;;5031375;28;20049;-78
2022/04/20 12:26:39;;;;;;;5.13;2.42;;;20.00;52.60;;;;;;5031045;28;20071;-79
2022/04/20 12:29:06;;;;;;;8.50;2.63;;;20.10;51.90;;;;;;5030924;28;20065;-76
2022/04/20 12:31:33;;;;;;;6.35;2.60;;;20.30;52.80;;;;;;5014354;28;20049;-76
2022/04/20 12:34:01;;;;;;;9.18;2.50;;;20.50;53.20;;;;;;5032227;28;20486;-78
2022/04/20 12:36:27;;;;;;;6.35;2.60;;;20.70;52.80;;;;;;5031397;28;20485;-78
2022/04/20 12:38:53;;;;;;;6.38;2.80;;;20.90;51.00;;;;;;5031171;28;20483;-79
2022/04/20 12:41:43;;;;;;;11.57;3.15;;;21.00;50.70;;;;;;4998378;28;20056;-77
2022/04/20 12:44:36;;;;;;;4.90;3.00;;;21.10;49.70;;;;;;5030636;28;20107;-78
2022/04/20 12:47:08;;;;;;;5.38;3.20;;;21.20;50.50;;;;;;5011659;28;20053;-79
2022/04/20 12:49:34;;;;;;;6.18;3.58;;;21.40;49.60;;;;;;4995967;28;20406;-79
2022/04/20 12:52:12;;;;;;;6.32;3.10;;;21.40;49.60;;;;;;5021493;28;20057;-80
2022/04/20 12:54:39;;;;;;;6.35;3.03;;;21.50;49.00;;;;;;5031951;28;20131;-79
2022/04/20 13:03:04;;;;;;;10.65;3.47;;;21.80;49.90;;;;;;5032152;28;20483;-79
2022/04/20 13:05:32;;;;;;;7.00;3.42;;;22.00;48.70;;;;;;5015619;28;20049;-80
2022/04/20 13:07:59;;;;;;;5.47;3.08;;;22.10;48.90;;;;;;5031168;28;20669;-80
2022/04/20 13:10:25;;;;;;;5.55;3.17;;;22.40;48.80;;;;;;5034645;28;20088;-79
2022/04/20 13:12:52;;;;;;;5.53;3.13;;;22.50;47.20;;;;;;5053893;28;20111;-80
2022/04/20 13:15:20;;;;;;;7.82;3.03;;;22.50;47.40;;;;;;5018691;28;20056;-79
2022/04/20 13:17:46;;;;;;;8.00;3.15;;;22.70;47.00;;;;;;5035798;28;20049;-79
2022/04/20 13:20:12;;;;;;;5.25;3.10;;;22.90;47.60;;;;;;5035400;28;20084;-79
2022/04/20 13:22:38;;;;;;;8.77;3.40;;;23.20;46.80;;;;;;5035743;28;20470;-79
2022/04/20 13:27:55;;;;;;;6.15;3.40;;;23.40;46.20;;;;;;5035620;28;20103;-79
2022/04/20 13:30:25;;;;;;;9.13;3.55;;;23.50;45.90;;;;;;5035086;28;20052;-79
2022/04/20 13:32:52;;;;;;;10.88;3.35;;;23.70;45.60;;;;;;5035547;28;20059;-79
2022/04/20 13:35:19;;;;;;;6.65;3.30;;;23.90;45.80;;;;;;5035300;28;20041;-80
2022/04/20 13:37:45;;;;;;;5.05;3.15;;;24.20;45.20;;;;;;5035143;28;20541;-80
2022/04/20 13:40:11;;;;;;;6.15;3.35;;;24.50;45.50;;;;;;5028746;28;20139;-79